Time;durP1;ratioP1;P1;durP2;ratioP2;P2;SDS_P1;SDS_P2;PMS_P1;PMS_P2;Temp;Humidity;BMP_temperature;BMP_pressure;BME280_temperature;BME280_humidity;BME280_pressure;Samples;Min_cycle;Max_cycle;Signal;HPM_P1;HPM_P2
2024/02/17 00:01:03;;;;;;;27.55;15.38;;;;;;;8.16;100.00;69296.75;5072189;28;20127;-61
2024/02/17 00:03:32;;;;;;;22.60;16.02;;;;;;;8.13;100.00;69291.81;5074065;28;20495;-61
2024/02/17 00:06:01;;;;;;;26.02;16.35;;;;;;;8.09;100.00;69289.75;5074167;28;20101;-62
2024/02/17 00:08:29;;;;;;;26.60;15.43;;;;;;;8.08;100.00;69285.41;5074076;28;20403;-61
2024/02/17 00:10:58;;;;;;;26.92;15.13;;;;;;;8.06;100.00;69285.69;5074123;28;20041;-62
2024/02/17 00:13:26;;;;;;;25.38;15.60;;;;;;;8.03;100.00;69279.56;5072629;28;20453;-62
2024/02/17 00:15:54;;;;;;;25.02;15.93;;;;;;;8.01;100.00;69282.47;5071235;28;20052;-61
2024/02/17 00:18:28;;;;;;;25.52;15.60;;;;;;;7.99;100.00;69274.91;5072292;28;20154;-62
2024/02/17 00:21:02;;;;;;;22.48;14.73;;;;;;;7.94;100.00;69275.47;5073303;28;20079;-61
2024/02/17 00:23:32;;;;;;;24.80;14.73;;;;;;;7.91;100.00;69274.56;5071966;28;20063;-62
2024/02/17 00:26:00;;;;;;;25.45;15.20;;;;;;;7.90;100.00;69267.63;5071585;28;20054;-61
2024/02/17 00:28:28;;;;;;;25.75;15.13;;;;;;;7.86;100.00;69263.53;5071738;28;20110;-61
2024/02/17 00:30:56;;;;;;;26.02;14.85;;;;;;;7.84;100.00;69256.03;5071849;28;20495;-62
2024/02/17 00:33:24;;;;;;;24.17;14.80;;;;;;;7.82;100.00;69258.88;5071896;28;20049;-61
2024/02/17 00:35:53;;;;;;;26.73;14.63;;;;;;;7.81;100.00;69260.31;5070722;28;20375;-50
2024/02/17 00:38:25;;;;;;;22.70;15.02;;;;;;;7.82;100.00;69258.88;5072114;28;20496;-54
2024/02/17 00:40:53;;;;;;;25.30;15.05;;;;;;;7.88;100.00;69268.47;5072580;28;20048;-53
2024/02/17 00:43:22;;;;;;;25.90;15.18;;;;;;;7.89;100.00;69266.47;5072206;28;20049;-49
2024/02/17 00:45:50;;;;;;;26.90;15.10;;;;;;;7.85;100.00;69262.38;5069560;28;20044;-51
2024/02/17 00:48:18;;;;;;;23.05;15.57;;;;;;;7.83;100.00;69257.47;5069320;28;20040;-52
2024/02/17 00:50:48;;;;;;;24.85;14.57;;;;;;;7.83;100.00;69259.47;5069611;28;20053;-54
2024/02/17 00:53:30;;;;;;;25.95;15.52;;;;;;;7.85;100.00;69261.81;5069547;28;20049;-51
2024/02/17 00:55:58;;;;;;;23.65;15.30;;;;;;;7.85;100.00;69262.38;5068200;28;20852;-53
2024/02/17 00:58:26;;;;;;;23.73;14.05;;;;;;;7.87;100.00;69264.72;5070367;28;20053;-51
2024/02/17 01:00:54;;;;;;;24.13;15.57;;;;;;;7.89;100.00;69264.44;5072230;28;20052;-47
2024/02/17 01:03:23;;;;;;;29.48;15.25;;;;;;;7.89;100.00;69269.63;5072403;28;20090;-49
2024/02/17 01:05:51;;;;;;;29.48;16.23;;;;;;;7.87;100.00;69264.72;5072801;28;20098;-51
2024/02/17 01:08:19;;;;;;;29.33;16.55;;;;;;;7.88;100.00;69268.47;5068851;28;20545;-52
2024/02/17 01:10:49;;;;;;;28.95;17.60;;;;;;;7.90;100.00;69270.81;5069591;28;20543;-50
2024/02/17 01:13:17;;;;;;;29.50;17.35;;;;;;;7.92;100.00;69273.16;5071657;28;20041;-51
2024/02/17 01:15:46;;;;;;;28.05;17.20;;;;;;;7.92;100.00;69273.16;5070846;28;20392;-53
2024/02/17 01:18:14;;;;;;;30.80;15.95;;;;;;;7.93;100.00;69265.91;5069255;28;20080;-52
2024/02/17 01:20:43;;;;;;;29.85;17.77;;;;;;;7.95;100.00;69273.47;5072340;28;20056;-53
2024/02/17 01:23:11;;;;;;;30.92;17.48;;;;;;;7.98;100.00;69278.97;5072682;28;20555;-50
2024/02/17 01:25:39;;;;;;;34.30;17.73;;;;;;;8.00;100.00;69281.88;5070170;28;20059;-51
2024/02/17 01:28:09;;;;;;;32.05;17.92;;;;;;;8.00;100.00;69276.66;5069051;28;20380;-52
2024/02/17 01:30:37;;;;;;;25.88;16.70;;;;;;;8.01;100.00;69282.47;5069377;28;20056;-51
2024/02/17 01:33:05;;;;;;;32.50;17.08;;;;;;;8.01;100.00;69279.88;5069319;28;20048;-52
2024/02/17 01:35:34;;;;;;;26.20;16.67;;;;;;;8.01;100.00;69277.25;5069134;28;20052;-51
2024/02/17 01:38:07;;;;;;;29.08;16.77;;;;;;;8.03;100.00;69279.56;5068478;28;20122;-53
2024/02/17 01:40:35;;;;;;;29.25;17.45;;;;;;;8.04;100.00;69283.34;5069676;28;20052;-51
2024/02/17 01:43:05;;;;;;;28.98;17.75;;;;;;;8.04;100.00;69278.72;5072621;28;20044;-53
2024/02/17 01:45:35;;;;;;;32.05;18.30;;;;;;;8.07;100.00;69282.25;5075803;28;20048;-51
2024/02/17 01:48:04;;;;;;;30.10;17.05;;;;;;;8.07;100.00;69289.44;5072973;28;20063;-53
2024/02/17 01:50:33;;;;;;;32.35;17.90;;;;;;;8.08;100.00;69288.00;5072944;28;20045;-52
2024/02/17 01:53:02;;;;;;;27.85;16.25;;;;;;;8.08;100.00;69285.97;5072981;28;20052;-52
2024/02/17 01:55:32;;;;;;;32.42;18.10;;;;;;;8.09;100.00;69289.75;5071896;28;20413;-52
2024/02/17 01:58:00;;;;;;;34.88;17.48;;;;;;;8.09;100.00;69283.97;5072037;28;20057;-48
2024/02/17 02:00:29;;;;;;;31.23;17.80;;;;;;;8.09;100.00;69289.75;5072687;28;20496;-48
2024/02/17 02:02:59;;;;;;;30.85;17.73;;;;;;;8.08;100.00;69288.59;5072591;28;20075;-47
2024/02/17 02:05:26;;;;;;;29.90;17.50;;;;;;;8.12;100.00;69290.06;5072798;28;20559;-48
2024/02/17 02:07:55;;;;;;;30.83;17.02;;;;;;;8.11;100.00;69289.50;5072299;28;20040;-50
2024/02/17 02:10:23;;;;;;;36.00;17.67;;;;;;;8.11;100.00;69291.50;5072004;28;20052;-48
2024/02/17 02:12:51;;;;;;;29.45;18.33;;;;;;;8.13;100.00;69294.41;5074184;28;20052;-48
2024/02/17 02:15:20;;;;;;;30.40;17.55;;;;;;;8.10;100.00;69290.34;5072086;28;20052;-48
2024/02/17 02:17:58;;;;;;;33.60;17.80;;;;;;;8.12;100.00;69293.25;5071991;28;20756;-52
2024/02/17 02:20:26;;;;;;;36.20;17.98;;;;;;;8.12;100.00;69295.84;5072396;28;20395;-50
2024/02/17 02:22:54;;;;;;;35.00;17.98;;;;;;;8.11;100.00;69288.91;5072219;28;20050;-50
2024/02/17 02:25:26;;;;;;;34.20;18.08;;;;;;;8.12;100.00;69290.06;5075285;28;20185;-49
2024/02/17 02:27:57;;;;;;;32.78;18.30;;;;;;;8.11;100.00;69294.69;5071463;28;20123;-53
2024/02/17 02:30:25;;;;;;;35.00;18.55;;;;;;;8.12;100.00;69293.25;5072530;28;20044;-49
2024/02/17 02:32:57;;;;;;;30.40;18.35;;;;;;;8.11;100.00;69292.09;5072415;28;20522;-49
2024/02/17 02:35:26;;;;;;;34.63;18.98;;;;;;;8.11;100.00;69296.69;5072141;28;20048;-48
2024/02/17 02:37:54;;;;;;;34.75;17.35;;;;;;;8.11;100.00;69291.50;5074929;28;20098;-50
2024/02/17 02:40:22;;;;;;;31.65;19.33;;;;;;;8.11;100.00;69291.50;5071604;28;20036;-47
2024/02/17 02:42:51;;;;;;;34.95;18.90;;;;;;;8.14;100.00;69297.59;5072909;28;20119;-51
2024/02/17 02:45:20;;;;;;;36.25;19.23;;;;;;;8.14;100.00;69292.41;5075300;28;20076;-51
2024/02/17 02:47:49;;;;;;;31.80;19.70;;;;;;;8.14;100.00;69297.59;5075157;28;20043;-51
2024/02/17 02:50:17;;;;;;;33.28;19.10;;;;;;;8.13;100.00;69286.03;5075127;28;20506;-50
2024/02/17 02:52:45;;;;;;;35.65;19.42;;;;;;;8.13;100.00;69291.25;5073850;28;20049;-51
2024/02/17 02:55:13;;;;;;;29.48;19.10;;;;;;;8.12;100.00;69290.06;5069711;28;20045;-49
2024/02/17 02:57:42;;;;;;;33.85;19.33;;;;;;;8.13;100.00;69297.00;5071210;28;20564;-49
2024/02/17 03:00:10;;;;;;;34.83;19.50;;;;;;;8.14;100.00;69297.59;5074069;28;20185;-49
2024/02/17 03:02:40;;;;;;;30.15;18.55;;;;;;;8.16;100.00;69297.31;5073556;28;20147;-49
2024/02/17 03:05:08;;;;;;;30.05;18.80;;;;;;;8.18;100.00;69299.06;5070452;28;20058;-52
2024/02/17 03:07:37;;;;;;;35.50;19.10;;;;;;;8.13;100.00;69291.81;5070937;28;20495;-52
2024/02/17 03:10:06;;;;;;;33.00;19.35;;;;;;;8.13;100.00;69299.03;5074056;28;20036;-52
2024/02/17 03:12:37;;;;;;;31.48;19.08;;;;;;;8.13;100.00;69296.44;5073939;28;20045;-51
2024/02/17 03:15:07;;;;;;;31.70;18.80;;;;;;;8.11;100.00;69289.50;5070867;28;20040;-51
2024/02/17 03:17:36;;;;;;;30.20;18.33;;;;;;;8.10;100.00;69290.91;5069017;28;20041;-51
2024/02/17 03:20:07;;;;;;;31.83;19.02;;;;;;;8.10;100.00;69290.91;5070399;28;20098;-51
2024/02/17 03:22:35;;;;;;;32.42;19.15;;;;;;;8.12;100.00;69290.06;5070347;28;20049;-50
2024/02/17 03:25:04;;;;;;;32.55;19.52;;;;;;;8.09;100.00;69284.56;5068089;28;20144;-54
2024/02/17 03:27:34;;;;;;;31.48;18.67;;;;;;;8.10;100.00;69290.34;5069030;28;20518;-52
2024/02/17 03:30:05;;;;;;;32.40;19.10;;;;;;;8.12;100.00;69292.66;5070329;28;20474;-52
2024/02/17 03:32:33;;;;;;;28.98;18.75;;;;;;;8.10;100.00;69288.31;5069665;28;20098;-52
2024/02/17 03:35:03;;;;;;;32.55;18.35;;;;;;;8.10;100.00;69288.31;5069926;28;20480;-51
2024/02/17 03:37:33;;;;;;;29.30;17.88;;;;;;;8.12;100.00;69292.66;5069822;28;20072;-53
2024/02/17 03:40:03;;;;;;;32.40;18.65;;;;;;;8.10;100.00;69293.53;5068927;28;20518;-48
2024/02/17 03:42:32;;;;;;;34.85;19.35;;;;;;;8.11;100.00;69289.50;5069445;28;20106;-49
2024/02/17 03:45:00;;;;;;;34.58;18.67;;;;;;;8.15;100.00;69296.16;5073271;28;20115;-50
2024/02/17 03:47:28;;;;;;;30.40;17.85;;;;;;;8.14;100.00;69297.59;5073303;28;20055;-48
2024/02/17 03:49:57;;;;;;;32.75;17.45;;;;;;;8.17;100.00;69295.91;5070738;28;20036;-48
2024/02/17 03:52:25;;;;;;;31.60;18.48;;;;;;;8.15;100.00;69298.75;5069965;28;20823;-48
2024/02/17 03:54:55;;;;;;;32.50;19.10;;;;;;;8.12;100.00;69292.66;5069490;28;20049;-48
2024/02/17 03:57:23;;;;;;;30.83;18.48;;;;;;;8.12;100.00;69295.25;5073090;28;20582;-53
2024/02/17 03:59:51;;;;;;;29.75;19.00;;;;;;;8.10;100.00;69292.94;5032321;28;1177306;-51
2024/02/17 04:02:19;;;;;;;29.30;18.38;;;;;;;8.11;100.00;69289.50;5073198;28;20072;-50
2024/02/17 04:04:48;;;;;;;29.25;18.45;;;;;;;8.13;100.00;69299.59;5070682;28;20119;-52
2024/02/17 04:07:16;;;;;;;29.27;18.25;;;;;;;8.13;100.00;69297.00;5070483;28;20040;-47
2024/02/17 04:09:44;;;;;;;29.98;18.60;;;;;;;8.13;100.00;69293.84;5069901;28;20083;-51
2024/02/17 04:12:14;;;;;;;31.00;18.83;;;;;;;8.13;100.00;69291.25;5069490;28;20044;-49
2024/02/17 04:14:43;;;;;;;35.33;19.00;;;;;;;8.14;100.00;69297.59;5070796;28;20403;-51
2024/02/17 04:17:11;;;;;;;33.92;19.35;;;;;;;8.11;100.00;69294.09;5070041;28;20045;-49
2024/02/17 04:19:40;;;;;;;34.25;19.95;;;;;;;8.10;100.00;69290.91;5070394;28;20585;-50
2024/02/17 04:22:08;;;;;;;35.67;18.77;;;;;;;8.10;100.00;69288.31;5072964;28;20055;-51
2024/02/17 04:24:36;;;;;;;30.27;18.75;;;;;;;8.10;100.00;69290.34;5071596;28;20089;-50
2024/02/17 04:27:07;;;;;;;31.60;18.00;;;;;;;8.09;100.00;69289.19;5069223;28;20123;-52
2024/02/17 04:29:37;;;;;;;34.88;19.15;;;;;;;8.12;100.00;69292.66;5071013;28;20079;-49
2024/02/17 04:32:06;;;;;;;32.03;18.85;;;;;;;8.13;100.00;69294.41;5073185;28;20053;-49
2024/02/17 04:34:34;;;;;;;33.45;18.77;;;;;;;8.14;100.00;69295.00;5072633;28;20040;-50
2024/02/17 04:37:03;;;;;;;30.90;18.52;;;;;;;8.12;100.00;69295.84;5069562;28;20048;-50
2024/02/17 04:39:31;;;;;;;34.13;17.90;;;;;;;8.13;100.00;69296.44;5069197;28;20052;-51
2024/02/17 04:41:59;;;;;;;29.67;18.75;;;;;;;8.15;100.00;69295.59;5068795;28;20400;-52
2024/02/17 04:44:27;;;;;;;28.25;18.20;;;;;;;8.13;100.00;69291.81;5069617;28;20037;-52
2024/02/17 04:46:57;;;;;;;29.20;17.88;;;;;;;8.15;100.00;69300.78;5069741;28;20467;-52
2024/02/17 04:49:25;;;;;;;35.45;18.05;;;;;;;8.14;100.00;69295.00;5069575;28;20048;-52
2024/02/17 04:51:53;;;;;;;31.55;18.25;;;;;;;8.14;100.00;69295.00;5070572;28;20051;-51
2024/02/17 04:54:21;;;;;;;28.55;18.30;;;;;;;8.15;100.00;69296.16;5070335;28;20040;-53
2024/02/17 04:56:50;;;;;;;33.30;18.25;;;;;;;8.15;100.00;69296.16;5068700;28;20067;-52
2024/02/17 04:59:18;;;;;;;33.80;18.70;;;;;;;8.15;100.00;69296.16;5069259;28;20399;-50
2024/02/17 05:01:46;;;;;;;33.28;20.08;;;;;;;8.14;100.00;69295.00;5069931;28;20043;-51
2024/02/17 05:04:15;;;;;;;28.63;18.42;;;;;;;8.14;100.00;69292.41;5069279;28;20056;-53
2024/02/17 05:06:47;;;;;;;33.95;19.33;;;;;;;8.13;100.00;69297.00;5068783;28;20056;-52
2024/02/17 05:09:16;;;;;;;30.85;19.95;;;;;;;8.12;100.00;69290.63;5071279;28;20565;-52
2024/02/17 05:11:44;;;;;;;30.50;17.63;;;;;;;8.12;100.00;69295.84;5067530;28;20055;-52
2024/02/17 05:14:15;;;;;;;30.35;19.05;;;;;;;8.11;100.00;69294.69;5069279;28;20037;-53
2024/02/17 05:16:44;;;;;;;32.65;19.05;;;;;;;8.11;100.00;69294.09;5069752;28;20048;-52
2024/02/17 05:19:15;;;;;;;32.22;19.15;;;;;;;8.13;100.00;69293.84;5070518;28;20044;-50
2024/02/17 05:21:44;;;;;;;31.27;18.48;;;;;;;8.14;100.00;69292.41;5072490;28;20483;-48
2024/02/17 05:24:12;;;;;;;28.88;19.05;;;;;;;8.12;100.00;69290.63;5069666;28;20519;-50
2024/02/17 05:26:41;;;;;;;26.67;17.17;;;;;;;8.13;100.00;69293.84;5067610;28;20045;-48
2024/02/17 05:29:09;;;;;;;27.52;17.92;;;;;;;8.11;100.00;69292.09;5069139;28;20045;-51
2024/02/17 05:31:37;;;;;;;29.42;17.42;;;;;;;8.10;100.00;69293.53;5069304;28;20154;-50
2024/02/17 05:34:05;;;;;;;30.80;18.42;;;;;;;8.09;100.00;69286.59;5069205;28;20052;-50
2024/02/17 05:36:35;;;;;;;26.70;17.73;;;;;;;8.10;100.00;69287.75;5069146;28;20037;-49
2024/02/17 05:39:03;;;;;;;34.38;19.02;;;;;;;8.15;100.00;69295.59;5069637;28;20135;-48
2024/02/17 05:41:32;;;;;;;30.75;18.25;;;;;;;8.12;100.00;69290.63;5071064;28;20068;-49
2024/02/17 05:44:00;;;;;;;30.15;18.23;;;;;;;8.11;100.00;69286.28;5071689;28;20052;-51
2024/02/17 05:46:28;;;;;;;32.05;18.00;;;;;;;8.12;100.00;69290.63;5069978;28;20048;-50
2024/02/17 05:48:56;;;;;;;26.05;17.25;;;;;;;8.13;100.00;69291.25;5068400;28;20511;-51
2024/02/17 05:51:25;;;;;;;30.23;18.45;;;;;;;8.13;100.00;69297.00;5070891;28;20064;-53
2024/02/17 05:53:54;;;;;;;29.73;18.38;;;;;;;8.16;100.00;69296.75;5069039;28;20044;-51
2024/02/17 05:56:23;;;;;;;33.83;17.20;;;;;;;8.14;100.00;69292.41;5067048;28;20036;-48
2024/02/17 05:58:52;;;;;;;29.73;17.70;;;;;;;8.13;100.00;69299.03;5068723;28;20538;-49
2024/02/17 06:01:22;;;;;;;26.80;17.65;;;;;;;8.13;100.00;69291.25;5071472;28;20450;-51
2024/02/17 06:03:50;;;;;;;29.67;17.25;;;;;;;8.12;100.00;69297.88;5068657;28;20526;-50
2024/02/17 06:06:19;;;;;;;27.30;17.50;;;;;;;8.12;100.00;69292.66;5069064;28;20051;-53
2024/02/17 06:08:48;;;;;;;28.08;17.58;;;;;;;8.13;100.00;69294.41;5072039;28;20506;-52
2024/02/17 06:11:17;;;;;;;28.02;17.63;;;;;;;8.17;100.00;69295.31;5068507;28;20060;-50
2024/02/17 06:13:46;;;;;;;27.95;17.38;;;;;;;8.13;100.00;69299.59;5069035;28;20099;-52
2024/02/17 06:16:14;;;;;;;28.45;18.25;;;;;;;8.13;100.00;69291.25;5068780;28;20281;-49
2024/02/17 06:21:28;;;;;;;28.73;16.92;;;;;;;8.11;100.00;69292.09;5070671;28;20125;-52
2024/02/17 06:23:57;;;;;;;25.98;16.73;;;;;;;8.11;100.00;69291.50;5071950;28;20055;-53
2024/02/17 06:26:28;;;;;;;27.08;16.45;;;;;;;8.10;100.00;69290.91;5069392;28;20040;-51
2024/02/17 06:28:58;;;;;;;29.38;16.85;;;;;;;8.10;100.00;69290.34;5072426;28;20127;-51
2024/02/17 06:31:26;;;;;;;22.85;15.75;;;;;;;8.10;100.00;69287.75;5072062;28;20119;-50
2024/02/17 06:33:54;;;;;;;27.35;15.65;;;;;;;8.09;100.00;69294.38;5073168;28;20106;-51
2024/02/17 06:36:23;;;;;;;27.25;16.30;;;;;;;8.06;100.00;69288.88;5075720;28;20153;-52
2024/02/17 06:38:51;;;;;;;28.40;16.48;;;;;;;8.04;100.00;69285.94;5075418;28;20041;-52
2024/02/17 06:41:20;;;;;;;27.45;15.10;;;;;;;8.04;100.00;69283.91;5075435;28;20041;-50
2024/02/17 06:43:50;;;;;;;27.27;15.52;;;;;;;8.04;100.00;69286.53;5075360;28;20422;-50
2024/02/17 06:46:19;;;;;;;27.70;16.58;;;;;;;8.04;100.00;69283.34;5073904;28;20045;-51
2024/02/17 06:48:49;;;;;;;26.98;16.40;;;;;;;8.03;100.00;69284.78;5072023;28;20115;-50
2024/02/17 06:51:20;;;;;;;30.30;16.42;;;;;;;8.03;100.00;69287.38;5071603;28;20047;-55
2024/02/17 06:53:49;;;;;;;30.25;16.95;;;;;;;8.03;100.00;69287.38;5072001;28;20078;-54
2024/02/17 06:56:17;;;;;;;27.58;17.38;;;;;;;8.03;100.00;69279.56;5070839;28;20377;-54
2024/02/17 06:58:45;;;;;;;28.65;17.10;;;;;;;8.03;100.00;69282.19;5072249;28;20110;-49
2024/02/17 07:01:17;;;;;;;29.27;17.75;;;;;;;8.00;100.00;69279.25;5073104;28;20090;-50
2024/02/17 07:03:47;;;;;;;27.98;17.02;;;;;;;8.00;100.00;69276.09;5071813;28;20440;-51
2024/02/17 07:06:18;;;;;;;30.83;16.63;;;;;;;8.01;100.00;69285.06;5071518;28;20056;-50
2024/02/17 07:08:48;;;;;;;28.77;17.08;;;;;;;8.01;100.00;69279.88;5072029;28;20055;-50
2024/02/17 07:11:17;;;;;;;25.77;16.15;;;;;;;8.00;100.00;69276.09;5069557;28;20090;-48
2024/02/17 07:13:45;;;;;;;26.83;16.35;;;;;;;7.99;100.00;69277.53;5071168;28;20521;-48
2024/02/17 07:16:13;;;;;;;29.42;16.73;;;;;;;7.99;100.00;69274.91;5071766;28;20384;-50
2024/02/17 07:18:43;;;;;;;28.90;17.70;;;;;;;8.00;100.00;69281.28;5071495;28;20561;-51
2024/02/17 07:21:12;;;;;;;27.80;16.50;;;;;;;8.00;100.00;69278.69;5074034;28;20049;-50
2024/02/17 07:23:41;;;;;;;25.95;16.48;;;;;;;8.00;100.00;69279.25;5074623;28;20068;-50
2024/02/17 07:26:09;;;;;;;28.08;17.45;;;;;;;7.99;100.00;69278.13;5072139;28;20063;-51
2024/02/17 07:28:38;;;;;;;27.08;16.95;;;;;;;7.99;100.00;69277.53;5070850;28;20492;-53
2024/02/17 07:31:06;;;;;;;29.30;17.77;;;;;;;7.98;100.00;69282.16;5073583;28;20123;-51
2024/02/17 07:33:34;;;;;;;27.05;17.50;;;;;;;8.00;100.00;69281.28;5074777;28;20048;-52
2024/02/17 07:36:05;;;;;;;26.17;16.52;;;;;;;8.01;100.00;69282.47;5074581;28;20053;-53
2024/02/17 07:38:36;;;;;;;26.23;16.05;;;;;;;8.01;100.00;69280.44;5072164;28;20079;-53
2024/02/17 07:41:04;;;;;;;28.10;17.02;;;;;;;8.03;100.00;69282.19;5069490;28;20041;-49
2024/02/17 07:43:33;;;;;;;31.98;16.23;;;;;;;8.04;100.00;69283.34;5070562;28;20123;-52
2024/02/17 07:46:02;;;;;;;29.70;16.42;;;;;;;8.03;100.00;69282.19;5071044;28;20396;-51
2024/02/17 07:48:32;;;;;;;27.88;15.63;;;;;;;8.04;100.00;69285.94;5070750;28;20052;-49
2024/02/17 07:51:01;;;;;;;24.73;16.60;;;;;;;8.07;100.00;69292.03;5070328;28;20042;-51
2024/02/17 07:53:30;;;;;;;26.67;16.40;;;;;;;8.07;100.00;69282.25;5071023;28;20050;-49
2024/02/17 07:55:58;;;;;;;25.42;16.40;;;;;;;8.08;100.00;69288.00;5069105;28;20780;-50
2024/02/17 07:58:27;;;;;;;27.80;17.98;;;;;;;8.11;100.00;69286.28;5069059;28;20053;-51
2024/02/17 08:00:55;;;;;;;30.35;17.42;;;;;;;8.13;100.00;69294.41;5071230;28;20098;-49
2024/02/17 08:03:23;;;;;;;30.55;18.42;;;;;;;8.15;100.00;69296.16;5069647;28;20053;-50
2024/02/17 08:05:51;;;;;;;30.05;17.80;;;;;;;8.18;100.00;69299.66;5073923;28;20503;-51
2024/02/17 08:08:20;;;;;;;30.25;17.27;;;;;;;8.21;100.00;69300.56;5071591;28;20163;-51
2024/02/17 08:10:49;;;;;;;26.20;16.45;;;;;;;8.25;100.00;69307.81;5068852;28;20052;-52
2024/02/17 08:13:18;;;;;;;31.48;17.73;;;;;;;8.29;100.00;69312.47;5071019;28;20048;-50
2024/02/17 08:15:47;;;;;;;28.02;17.63;;;;;;;8.32;100.00;69317.41;5072771;28;20554;-53
2024/02/17 08:18:15;;;;;;;27.73;17.77;;;;;;;8.35;100.00;69316.28;5069884;28;20432;-52
2024/02/17 08:20:46;;;;;;;26.30;17.63;;;;;;;8.39;100.00;69326.13;5070207;28;20102;-53
2024/02/17 08:23:14;;;;;;;26.48;17.50;;;;;;;8.46;100.00;69334.31;5070450;28;20041;-52
2024/02/17 08:25:43;;;;;;;25.67;17.65;;;;;;;8.52;100.00;69337.53;5069170;28;20045;-53
2024/02/17 08:28:12;;;;;;;25.33;18.15;;;;;;;8.52;100.00;69338.13;5070973;28;20044;-53
2024/02/17 08:30:43;;;;;;;30.25;18.33;;;;;;;8.57;100.00;69343.94;5070744;28;20102;-53
2024/02/17 08:33:11;;;;;;;26.80;16.02;;;;;;;8.66;100.00;69355.88;5071038;28;20044;-61
2024/02/17 08:35:41;;;;;;;32.17;17.90;;;;;;;8.67;100.00;69354.44;5071198;28;20552;-62
2024/02/17 08:38:09;;;;;;;27.73;17.55;;;;;;;8.68;100.00;69358.78;5073131;28;20124;-62
2024/02/17 08:40:38;;;;;;;25.25;16.48;;;;;;;8.80;100.00;69372.78;5070960;28;20056;-61
2024/02/17 08:43:06;;;;;;;27.17;16.35;;;;;;;8.83;100.00;69377.72;5070860;28;20040;-62
2024/02/17 08:45:36;;;;;;;25.95;16.58;;;;;;;8.87;100.00;69372.53;5071009;28;20080;-62
2024/02/17 08:48:04;;;;;;;28.02;16.27;;;;;;;8.91;100.00;69379.81;5072366;28;20464;-62
2024/02/17 08:50:32;;;;;;;27.08;16.05;;;;;;;8.92;100.00;69380.97;5072848;28;20053;-62
2024/02/17 08:53:00;;;;;;;26.92;17.15;;;;;;;8.94;100.00;69391.13;5073015;28;20037;-62
2024/02/17 08:55:28;;;;;;;25.98;16.52;;;;;;;9.00;100.00;69396.94;5072645;28;20049;-62
2024/02/17 08:57:56;;;;;;;25.50;17.05;;;;;;;9.05;100.00;69394.97;5071381;28;20052;-63
2024/02/17 09:00:24;;;;;;;28.10;16.95;;;;;;;9.10;100.00;69403.41;5069829;28;20052;-50
2024/02/17 09:02:54;;;;;;;30.40;16.55;;;;;;;9.15;100.00;69406.63;5072182;28;20047;-50
2024/02/17 09:05:22;;;;;;;30.60;18.17;;;;;;;9.19;100.00;69413.88;5072777;28;20484;-49
2024/02/17 09:07:51;;;;;;;34.08;17.00;;;;;;;9.21;100.00;69415.63;5072799;28;20044;-50
2024/02/17 09:10:19;;;;;;;27.95;16.98;;;;;;;9.24;100.00;69419.13;5072691;28;20496;-49
2024/02/17 09:12:47;;;;;;;30.00;16.77;;;;;;;9.29;100.00;69420.34;5070088;28;20768;-47
2024/02/17 09:15:17;;;;;;;31.70;17.88;;;;;;;9.34;100.00;69430.19;5068181;28;20053;-48
2024/02/17 09:17:45;;;;;;;33.50;17.55;;;;;;;9.35;100.00;69431.94;5072020;28;20115;-47
2024/02/17 09:20:15;;;;;;;30.15;17.45;;;;;;;9.39;100.00;69436.03;5066993;28;20555;-49
2024/02/17 09:22:43;;;;;;;27.60;16.90;;;;;;;9.43;100.00;69440.69;5068848;28;20041;-50
2024/02/17 09:25:24;;;;;;;30.85;16.85;;;;;;;9.47;100.00;69448.56;5068737;28;20073;-50
2024/02/17 09:28:22;;;;;;;31.73;17.50;;;;;;;9.56;100.00;69455.28;5060133;28;20066;-47
2024/02/17 09:30:50;;;;;;;31.08;18.08;;;;;;;9.60;100.00;69460.53;5069485;28;20056;-48
2024/02/17 09:33:20;;;;;;;31.85;18.20;;;;;;;9.66;100.00;69466.38;5069733;28;20442;-49
2024/02/17 09:35:49;;;;;;;31.83;17.95;;;;;;;9.68;100.00;69468.69;5072594;28;20064;-46
2024/02/17 09:38:18;;;;;;;30.40;16.45;;;;;;;9.74;100.00;69473.09;5072469;28;20044;-48
2024/02/17 09:40:46;;;;;;;31.98;19.10;;;;;;;9.78;100.00;69477.75;5067738;28;20506;-50
2024/02/17 09:43:14;;;;;;;27.52;17.33;;;;;;;9.82;100.00;69485.03;5069190;28;20041;-50
2024/02/17 09:45:42;;;;;;;31.40;18.33;;;;;;;9.87;100.00;69488.25;5072377;28;20095;-51
2024/02/17 09:48:12;;;;;;;31.77;18.15;;;;;;;9.93;100.00;69495.25;5072625;28;20047;-48
2024/02/17 09:50:42;;;;;;;31.85;18.30;;;;;;;9.95;100.00;69497.59;5072297;28;20569;-52
2024/02/17 09:53:13;;;;;;;28.63;19.17;;;;;;;10.03;100.00;69506.31;5072345;28;20052;-61
2024/02/17 09:55:46;;;;;;;30.05;18.58;;;;;;;10.09;100.00;69518.53;5066920;28;20098;-63
2024/02/17 09:58:14;;;;;;;;;;;;;;;10.15;100.00;69524.97;5065270;28;20079;-61
2024/02/17 10:00:42;;;;;;;30.48;17.60;;;;;;;10.17;100.00;69524.09;5067278;28;20415;-63
2024/02/17 10:03:10;;;;;;;30.73;19.02;;;;;;;10.20;100.00;69530.19;5072634;28;20068;-61
2024/02/17 10:05:39;;;;;;;29.92;18.42;;;;;;;10.25;100.00;69528.81;5072292;28;20051;-61
2024/02/17 10:08:07;;;;;;;32.33;20.17;;;;;;;10.30;100.00;69534.06;5072835;28;20052;-61
2024/02/17 10:10:38;;;;;;;31.38;18.90;;;;;;;10.35;100.00;69541.94;5071402;28;20090;-61
2024/02/17 10:13:06;;;;;;;28.20;17.85;;;;;;;10.43;100.00;69553.88;5074401;28;20127;-61
2024/02/17 10:15:36;;;;;;;28.30;18.33;;;;;;;10.48;100.00;69564.94;5075692;28;20040;-61
2024/02/17 10:18:05;;;;;;;32.53;17.65;;;;;;;10.57;100.00;69570.22;5072722;28;20059;-61
2024/02/17 10:20:32;;;;;;;29.75;18.40;;;;;;;10.60;100.00;69573.72;5073135;28;20098;-62
2024/02/17 10:23:02;;;;;;;26.67;17.42;;;;;;;10.70;100.00;69584.22;5074171;28;20059;-62
2024/02/17 10:25:30;;;;;;;25.17;17.48;;;;;;;10.74;100.00;69589.47;5073156;28;20036;-62
2024/02/17 10:28:03;;;;;;;27.98;17.20;;;;;;;10.76;100.00;69588.63;5071807;28;20056;-62
2024/02/17 10:30:34;;;;;;;23.95;15.55;;;;;;;10.87;100.00;69604.06;5075034;28;20056;-62
2024/02/17 10:33:06;;;;;;;25.83;15.98;;;;;;;10.97;100.00;69613.13;5074827;28;20101;-62
2024/02/17 10:35:36;;;;;;;24.10;14.85;;;;;;;11.01;100.00;69611.41;5072161;28;20044;-52
2024/02/17 10:38:07;;;;;;;22.77;14.68;;;;;;;10.96;100.00;69608.75;5073745;28;20514;-51
2024/02/17 10:40:39;;;;;;;22.73;14.48;;;;;;;11.06;100.00;69619.88;5075576;28;20045;-62
2024/02/17 10:43:08;;;;;;;22.45;15.18;;;;;;;11.14;100.00;69626.59;5075302;28;20087;-62
2024/02/17 10:45:37;;;;;;;23.90;14.65;;;;;;;11.20;100.00;69640.84;5073257;28;20052;-62
2024/02/17 10:48:07;;;;;;;24.15;13.70;;;;;;;11.31;100.00;69656.31;5072353;28;20051;-62
2024/02/17 10:50:41;;;;;;;22.90;14.65;;;;;;;11.40;100.00;69658.97;5070047;28;20059;-62
2024/02/17 10:53:17;;;;;;;20.73;13.93;;;;;;;11.50;100.00;69670.66;5071305;28;20580;-62
2024/02/17 10:55:51;;;;;;;21.83;14.10;;;;;;;11.57;100.00;69682.88;5070622;28;20068;-62
2024/02/17 10:58:22;;;;;;;23.92;13.63;;;;;;;11.64;100.00;69685.81;5071221;28;20535;-62
2024/02/17 11:00:51;;;;;;;20.27;13.32;;;;;;;11.72;100.00;69694.59;5071811;28;20049;-62
2024/02/17 11:03:23;;;;;;;18.85;12.70;;;;;;;11.75;100.00;69701.31;5071957;28;20527;-62
2024/02/17 11:05:56;;;;;;;22.40;14.13;;;;;;;11.77;100.00;69701.03;5070111;28;20088;-62
2024/02/17 11:08:25;;;;;;;23.63;13.30;;;;;;;11.89;100.00;69711.25;5071325;28;20036;-62
2024/02/17 11:10:56;;;;;;;20.60;13.10;;;;;;;11.95;100.00;69715.66;5071245;28;20372;-62
2024/02/17 11:13:27;;;;;;;19.73;12.73;;;;;;;12.01;100.00;69733.13;5072705;28;20132;-63
2024/02/17 11:15:59;;;;;;;22.17;12.38;;;;;;;12.01;100.00;69735.75;5074185;28;20139;-62
2024/02/17 11:18:28;;;;;;;;;;;;;;;12.06;100.00;69733.16;5072117;28;20052;-63
2024/02/17 11:20:57;;;;;;;21.40;11.90;;;;;;;12.10;100.00;69737.84;5071088;28;19924;-62
2024/02/17 11:23:32;;;;;;;19.17;12.05;;;;;;;12.07;100.00;69736.97;5069854;28;20072;-63
2024/02/17 11:26:00;;;;;;;21.23;12.52;;;;;;;12.00;100.00;69727.31;5070013;28;20555;-62
2024/02/17 11:28:31;;;;;;;19.17;12.32;;;;;;;12.09;100.00;69736.66;5070509;28;20118;-62